sensor_id;sensor_type;location;lat;lon;timestamp;temperature;humidity
10644;DHT22;5370;50.132;8.626;2022-10-18T00:00:56;18.10;99.90
10644;DHT22;5370;50.132;8.626;2022-10-18T00:03:22;18.10;99.90
10644;DHT22;5370;50.132;8.626;2022-10-18T00:05:48;18.10;99.90
10644;DHT22;5370;50.132;8.626;2022-10-18T00:08:15;18.10;99.90
10644;DHT22;5370;50.132;8.626;2022-10-18T00:10:41;18.10;99.90
10644;DHT22;5370;50.132;8.626;2022-10-18T00:13:07;18.10;99.90
10644;DHT22;5370;50.132;8.626;2022-10-18T00:15:32;18.00;99.90
10644;DHT22;5370;50.132;8.626;2022-10-18T00:17:58;18.00;99.90
10644;DHT22;5370;50.132;8.626;2022-10-18T00:20:23;18.00;99.90
10644;DHT22;5370;50.132;8.626;2022-10-18T00:22:49;18.00;99.90
10644;DHT22;5370;50.132;8.626;2022-10-18T00:25:15;18.00;99.90
10644;DHT22;5370;50.132;8.626;2022-10-18T00:27:40;18.00;99.90
10644;DHT22;5370;50.132;8.626;2022-10-18T00:30:06;17.90;99.90
10644;DHT22;5370;50.132;8.626;2022-10-18T00:32:39;17.90;99.90
10644;DHT22;5370;50.132;8.626;2022-10-18T00:35:06;17.90;99.90
10644;DHT22;5370;50.132;8.626;2022-10-18T00:37:32;17.90;99.90
10644;DHT22;5370;50.132;8.626;2022-10-18T00:39:57;17.90;99.90
10644;DHT22;5370;50.132;8.626;2022-10-18T00:42:28;18.00;99.90
10644;DHT22;5370;50.132;8.626;2022-10-18T00:45:21;18.00;99.90
10644;DHT22;5370;50.132;8.626;2022-10-18T00:47:51;18.00;99.90
10644;DHT22;5370;50.132;8.626;2022-10-18T00:50:18;18.00;99.90
10644;DHT22;5370;50.132;8.626;2022-10-18T00:52:51;18.00;99.90
10644;DHT22;5370;50.132;8.626;2022-10-18T00:55:18;18.00;99.90
10644;DHT22;5370;50.132;8.626;2022-10-18T00:57:44;18.00;99.90
10644;DHT22;5370;50.132;8.626;2022-10-18T01:00:11;18.00;99.90
10644;DHT22;5370;50.132;8.626;2022-10-18T01:02:39;18.00;99.90
10644;DHT22;5370;50.132;8.626;2022-10-18T01:05:06;17.90;99.90
10644;DHT22;5370;50.132;8.626;2022-10-18T01:10:40;17.90;99.90
10644;DHT22;5370;50.132;8.626;2022-10-18T01:21:09;17.80;99.90
10644;DHT22;5370;50.132;8.626;2022-10-18T01:32:03;17.70;99.90
10644;DHT22;5370;50.132;8.626;2022-10-18T01:34:34;17.70;99.90
10644;DHT22;5370;50.132;8.626;2022-10-18T01:37:02;17.70;99.90
10644;DHT22;5370;50.132;8.626;2022-10-18T01:39:33;17.70;99.90
10644;DHT22;5370;50.132;8.626;2022-10-18T01:42:02;17.70;99.90
10644;DHT22;5370;50.132;8.626;2022-10-18T01:44:31;17.70;99.90
10644;DHT22;5370;50.132;8.626;2022-10-18T01:46:58;17.70;99.90
10644;DHT22;5370;50.132;8.626;2022-10-18T01:49:25;17.60;99.90
10644;DHT22;5370;50.132;8.626;2022-10-18T01:51:51;17.60;99.90
10644;DHT22;5370;50.132;8.626;2022-10-18T01:54:21;17.60;99.90
10644;DHT22;5370;50.132;8.626;2022-10-18T01:57:06;17.60;99.90
10644;DHT22;5370;50.132;8.626;2022-10-18T01:59:49;17.60;99.90
10644;DHT22;5370;50.132;8.626;2022-10-18T02:07:43;17.60;99.90
10644;DHT22;5370;50.132;8.626;2022-10-18T02:10:21;17.60;99.90
10644;DHT22;5370;50.132;8.626;2022-10-18T02:12:49;17.60;99.90
10644;DHT22;5370;50.132;8.626;2022-10-18T02:15:21;17.60;99.90
10644;DHT22;5370;50.132;8.626;2022-10-18T02:17:48;17.60;99.90
10644;DHT22;5370;50.132;8.626;2022-10-18T02:20:17;17.60;99.90
10644;DHT22;5370;50.132;8.626;2022-10-18T02:22:45;17.60;99.90
10644;DHT22;5370;50.132;8.626;2022-10-18T02:25:16;17.60;99.90
10644;DHT22;5370;50.132;8.626;2022-10-18T02:27:42;17.60;99.90
10644;DHT22;5370;50.132;8.626;2022-10-18T02:30:08;17.60;99.90
10644;DHT22;5370;50.132;8.626;2022-10-18T02:32:41;17.60;99.90
10644;DHT22;5370;50.132;8.626;2022-10-18T02:35:26;17.60;99.90
10644;DHT22;5370;50.132;8.626;2022-10-18T02:37:54;17.60;99.90
10644;DHT22;5370;50.132;8.626;2022-10-18T02:40:21;17.60;99.90
10644;DHT22;5370;50.132;8.626;2022-10-18T02:42:54;17.60;99.90
10644;DHT22;5370;50.132;8.626;2022-10-18T02:45:20;17.60;99.90
10644;DHT22;5370;50.132;8.626;2022-10-18T02:47:46;17.50;99.90
10644;DHT22;5370;50.132;8.626;2022-10-18T02:50:11;17.50;99.90
10644;DHT22;5370;50.132;8.626;2022-10-18T02:52:37;17.50;99.90
10644;DHT22;5370;50.132;8.626;2022-10-18T02:55:03;17.50;99.90
10644;DHT22;5370;50.132;8.626;2022-10-18T02:57:29;17.40;99.90
10644;DHT22;5370;50.132;8.626;2022-10-18T02:59:55;17.40;99.90
10644;DHT22;5370;50.132;8.626;2022-10-18T03:02:20;17.30;99.90
10644;DHT22;5370;50.132;8.626;2022-10-18T03:04:46;17.30;99.90
10644;DHT22;5370;50.132;8.626;2022-10-18T03:07:12;17.30;99.90
10644;DHT22;5370;50.132;8.626;2022-10-18T03:09:37;17.30;99.90
10644;DHT22;5370;50.132;8.626;2022-10-18T03:12:03;17.30;99.90
10644;DHT22;5370;50.132;8.626;2022-10-18T03:14:29;17.30;99.90
10644;DHT22;5370;50.132;8.626;2022-10-18T03:16:54;17.30;99.90
10644;DHT22;5370;50.132;8.626;2022-10-18T03:19:20;17.40;99.90
10644;DHT22;5370;50.132;8.626;2022-10-18T03:21:45;17.40;99.90
10644;DHT22;5370;50.132;8.626;2022-10-18T03:24:11;17.40;99.90
10644;DHT22;5370;50.132;8.626;2022-10-18T03:26:36;17.50;99.90
10644;DHT22;5370;50.132;8.626;2022-10-18T03:29:02;17.50;99.90
10644;DHT22;5370;50.132;8.626;2022-10-18T03:31:28;17.50;99.90
10644;DHT22;5370;50.132;8.626;2022-10-18T03:33:53;17.50;99.90
10644;DHT22;5370;50.132;8.626;2022-10-18T03:36:19;17.60;99.90
10644;DHT22;5370;50.132;8.626;2022-10-18T03:38:44;17.60;99.90
10644;DHT22;5370;50.132;8.626;2022-10-18T03:41:10;17.60;99.90
10644;DHT22;5370;50.132;8.626;2022-10-18T03:43:35;17.60;99.90
10644;DHT22;5370;50.132;8.626;2022-10-18T03:46:01;17.60;99.90
10644;DHT22;5370;50.132;8.626;2022-10-18T03:48:26;17.60;99.90
10644;DHT22;5370;50.132;8.626;2022-10-18T03:50:52;17.60;99.90
10644;DHT22;5370;50.132;8.626;2022-10-18T03:53:17;17.60;99.90
10644;DHT22;5370;50.132;8.626;2022-10-18T03:55:43;17.50;99.90
10644;DHT22;5370;50.132;8.626;2022-10-18T03:58:09;17.50;99.90
10644;DHT22;5370;50.132;8.626;2022-10-18T04:00:34;17.50;99.90
10644;DHT22;5370;50.132;8.626;2022-10-18T04:03:00;17.50;99.90
10644;DHT22;5370;50.132;8.626;2022-10-18T04:05:26;17.40;99.90
10644;DHT22;5370;50.132;8.626;2022-10-18T04:07:54;17.40;99.90
10644;DHT22;5370;50.132;8.626;2022-10-18T04:10:20;17.40;99.90
10644;DHT22;5370;50.132;8.626;2022-10-18T04:12:45;17.30;99.90
10644;DHT22;5370;50.132;8.626;2022-10-18T04:15:11;17.30;99.90
10644;DHT22;5370;50.132;8.626;2022-10-18T04:17:36;17.30;99.90
10644;DHT22;5370;50.132;8.626;2022-10-18T04:20:02;17.30;99.90
10644;DHT22;5370;50.132;8.626;2022-10-18T04:22:28;17.20;99.90
10644;DHT22;5370;50.132;8.626;2022-10-18T04:24:53;17.20;99.90
10644;DHT22;5370;50.132;8.626;2022-10-18T04:27:21;17.20;99.90
10644;DHT22;5370;50.132;8.626;2022-10-18T04:29:46;17.20;99.90
10644;DHT22;5370;50.132;8.626;2022-10-18T04:32:12;17.20;99.90
10644;DHT22;5370;50.132;8.626;2022-10-18T04:34:37;17.20;99.90
10644;DHT22;5370;50.132;8.626;2022-10-18T04:37:03;17.20;99.90
10644;DHT22;5370;50.132;8.626;2022-10-18T04:39:28;17.20;99.90
10644;DHT22;5370;50.132;8.626;2022-10-18T04:41:54;17.20;99.90
10644;DHT22;5370;50.132;8.626;2022-10-18T04:44:19;17.20;99.90
10644;DHT22;5370;50.132;8.626;2022-10-18T04:46:45;17.20;99.90
10644;DHT22;5370;50.132;8.626;2022-10-18T04:49:10;17.20;99.90
10644;DHT22;5370;50.132;8.626;2022-10-18T04:51:36;17.20;99.90
10644;DHT22;5370;50.132;8.626;2022-10-18T04:54:01;17.20;99.90
10644;DHT22;5370;50.132;8.626;2022-10-18T04:56:27;17.20;99.90
10644;DHT22;5370;50.132;8.626;2022-10-18T04:58:52;17.20;99.90
10644;DHT22;5370;50.132;8.626;2022-10-18T05:01:18;17.20;99.90
10644;DHT22;5370;50.132;8.626;2022-10-18T05:03:43;17.20;99.90
10644;DHT22;5370;50.132;8.626;2022-10-18T05:06:10;17.20;99.90
10644;DHT22;5370;50.132;8.626;2022-10-18T05:08:35;17.20;99.90
10644;DHT22;5370;50.132;8.626;2022-10-18T05:11:02;17.20;99.90
10644;DHT22;5370;50.132;8.626;2022-10-18T05:13:29;17.20;99.90
10644;DHT22;5370;50.132;8.626;2022-10-18T05:15:55;17.20;99.90
10644;DHT22;5370;50.132;8.626;2022-10-18T05:18:20;17.20;99.90
10644;DHT22;5370;50.132;8.626;2022-10-18T05:20:46;17.20;99.90
10644;DHT22;5370;50.132;8.626;2022-10-18T05:23:12;17.20;99.90
10644;DHT22;5370;50.132;8.626;2022-10-18T05:25:38;17.20;99.90
10644;DHT22;5370;50.132;8.626;2022-10-18T05:28:05;17.10;99.90
10644;DHT22;5370;50.132;8.626;2022-10-18T05:30:30;17.20;99.90
10644;DHT22;5370;50.132;8.626;2022-10-18T05:32:56;17.20;99.90
10644;DHT22;5370;50.132;8.626;2022-10-18T05:35:21;17.20;99.90
10644;DHT22;5370;50.132;8.626;2022-10-18T05:37:47;17.10;99.90
10644;DHT22;5370;50.132;8.626;2022-10-18T05:40:13;17.10;99.90
10644;DHT22;5370;50.132;8.626;2022-10-18T05:42:38;17.10;99.90
10644;DHT22;5370;50.132;8.626;2022-10-18T05:45:04;17.10;99.90
10644;DHT22;5370;50.132;8.626;2022-10-18T05:47:30;17.10;99.90
10644;DHT22;5370;50.132;8.626;2022-10-18T05:49:55;17.10;99.90
10644;DHT22;5370;50.132;8.626;2022-10-18T05:52:21;17.10;99.90
10644;DHT22;5370;50.132;8.626;2022-10-18T05:54:47;17.10;99.90
10644;DHT22;5370;50.132;8.626;2022-10-18T05:57:12;17.10;99.90
10644;DHT22;5370;50.132;8.626;2022-10-18T05:59:38;17.10;99.90
10644;DHT22;5370;50.132;8.626;2022-10-18T06:02:03;17.10;99.90
10644;DHT22;5370;50.132;8.626;2022-10-18T06:04:29;17.20;99.90
10644;DHT22;5370;50.132;8.626;2022-10-18T06:06:55;17.10;99.90
10644;DHT22;5370;50.132;8.626;2022-10-18T06:09:21;17.10;99.90
10644;DHT22;5370;50.132;8.626;2022-10-18T06:11:46;17.10;99.90
10644;DHT22;5370;50.132;8.626;2022-10-18T06:14:12;17.10;99.90
10644;DHT22;5370;50.132;8.626;2022-10-18T06:16:37;17.10;99.90
10644;DHT22;5370;50.132;8.626;2022-10-18T06:19:03;17.20;99.90
10644;DHT22;5370;50.132;8.626;2022-10-18T06:21:28;17.20;99.90
10644;DHT22;5370;50.132;8.626;2022-10-18T06:23:56;17.20;99.90
10644;DHT22;5370;50.132;8.626;2022-10-18T06:26:22;17.20;99.90
10644;DHT22;5370;50.132;8.626;2022-10-18T06:28:48;17.20;99.90
10644;DHT22;5370;50.132;8.626;2022-10-18T06:31:14;17.20;99.90
10644;DHT22;5370;50.132;8.626;2022-10-18T06:33:40;17.30;99.90
10644;DHT22;5370;50.132;8.626;2022-10-18T06:36:16;17.20;99.90
10644;DHT22;5370;50.132;8.626;2022-10-18T06:38:42;17.20;99.90
10644;DHT22;5370;50.132;8.626;2022-10-18T06:41:08;17.20;99.90
10644;DHT22;5370;50.132;8.626;2022-10-18T06:43:34;17.20;99.90
10644;DHT22;5370;50.132;8.626;2022-10-18T06:46:01;17.20;99.90
10644;DHT22;5370;50.132;8.626;2022-10-18T06:48:29;17.30;99.90
10644;DHT22;5370;50.132;8.626;2022-10-18T06:50:57;17.30;99.90
10644;DHT22;5370;50.132;8.626;2022-10-18T06:53:26;17.30;99.90
10644;DHT22;5370;50.132;8.626;2022-10-18T06:55:52;17.30;99.90
10644;DHT22;5370;50.132;8.626;2022-10-18T06:58:18;17.40;99.90
10644;DHT22;5370;50.132;8.626;2022-10-18T07:00:43;17.40;99.90
10644;DHT22;5370;50.132;8.626;2022-10-18T07:03:12;17.40;99.90
10644;DHT22;5370;50.132;8.626;2022-10-18T07:05:37;17.40;99.90
10644;DHT22;5370;50.132;8.626;2022-10-18T07:08:03;17.40;99.90
10644;DHT22;5370;50.132;8.626;2022-10-18T07:10:28;17.40;99.90
10644;DHT22;5370;50.132;8.626;2022-10-18T07:12:55;17.40;99.90
10644;DHT22;5370;50.132;8.626;2022-10-18T07:15:20;17.50;99.90
10644;DHT22;5370;50.132;8.626;2022-10-18T07:17:48;17.40;99.90
10644;DHT22;5370;50.132;8.626;2022-10-18T07:20:14;17.50;99.90
10644;DHT22;5370;50.132;8.626;2022-10-18T07:22:39;17.50;99.90
10644;DHT22;5370;50.132;8.626;2022-10-18T07:25:07;17.50;99.90
10644;DHT22;5370;50.132;8.626;2022-10-18T07:27:39;17.60;99.90
10644;DHT22;5370;50.132;8.626;2022-10-18T07:30:06;17.70;99.90
10644;DHT22;5370;50.132;8.626;2022-10-18T07:32:33;17.80;99.90
10644;DHT22;5370;50.132;8.626;2022-10-18T07:34:58;17.80;99.90
10644;DHT22;5370;50.132;8.626;2022-10-18T07:37:24;17.90;99.90
10644;DHT22;5370;50.132;8.626;2022-10-18T07:39:49;18.00;99.90
10644;DHT22;5370;50.132;8.626;2022-10-18T07:42:15;18.10;99.90
10644;DHT22;5370;50.132;8.626;2022-10-18T07:44:41;18.10;99.90
10644;DHT22;5370;50.132;8.626;2022-10-18T07:47:06;18.10;99.90
10644;DHT22;5370;50.132;8.626;2022-10-18T07:49:32;18.20;99.90
10644;DHT22;5370;50.132;8.626;2022-10-18T07:51:57;18.20;99.90
10644;DHT22;5370;50.132;8.626;2022-10-18T07:54:23;18.30;99.90
10644;DHT22;5370;50.132;8.626;2022-10-18T07:56:48;18.30;99.90
10644;DHT22;5370;50.132;8.626;2022-10-18T07:59:14;18.40;99.90
10644;DHT22;5370;50.132;8.626;2022-10-18T08:01:39;18.50;99.90
10644;DHT22;5370;50.132;8.626;2022-10-18T08:04:05;18.50;99.90
10644;DHT22;5370;50.132;8.626;2022-10-18T08:06:30;18.60;99.90
10644;DHT22;5370;50.132;8.626;2022-10-18T08:08:56;18.70;99.90
10644;DHT22;5370;50.132;8.626;2022-10-18T08:11:23;18.80;99.90
10644;DHT22;5370;50.132;8.626;2022-10-18T08:13:49;18.90;99.90
10644;DHT22;5370;50.132;8.626;2022-10-18T08:16:23;19.00;99.90
10644;DHT22;5370;50.132;8.626;2022-10-18T08:18:49;19.10;99.90
10644;DHT22;5370;50.132;8.626;2022-10-18T08:21:16;19.20;99.90
10644;DHT22;5370;50.132;8.626;2022-10-18T08:23:42;19.30;99.90
10644;DHT22;5370;50.132;8.626;2022-10-18T08:26:13;19.40;99.90
10644;DHT22;5370;50.132;8.626;2022-10-18T08:28:39;19.60;99.90
10644;DHT22;5370;50.132;8.626;2022-10-18T08:31:07;19.70;99.90
10644;DHT22;5370;50.132;8.626;2022-10-18T08:33:33;19.90;99.90
10644;DHT22;5370;50.132;8.626;2022-10-18T08:36:01;19.90;99.90
10644;DHT22;5370;50.132;8.626;2022-10-18T08:38:30;20.00;99.90
10644;DHT22;5370;50.132;8.626;2022-10-18T08:40:59;20.00;99.90
10644;DHT22;5370;50.132;8.626;2022-10-18T08:43:35;20.00;99.90
10644;DHT22;5370;50.132;8.626;2022-10-18T08:46:02;20.00;99.90
10644;DHT22;5370;50.132;8.626;2022-10-18T08:48:36;20.00;99.90
10644;DHT22;5370;50.132;8.626;2022-10-18T08:51:16;20.10;99.90
10644;DHT22;5370;50.132;8.626;2022-10-18T08:53:53;20.10;99.90
10644;DHT22;5370;50.132;8.626;2022-10-18T08:56:19;20.10;99.90
10644;DHT22;5370;50.132;8.626;2022-10-18T08:58:48;20.10;99.90
10644;DHT22;5370;50.132;8.626;2022-10-18T09:10:23;20.50;99.90
10644;DHT22;5370;50.132;8.626;2022-10-18T09:15:57;20.80;99.90
10644;DHT22;5370;50.132;8.626;2022-10-18T09:21:02;21.00;99.90
10644;DHT22;5370;50.132;8.626;2022-10-18T09:26:20;21.30;99.50
10644;DHT22;5370;50.132;8.626;2022-10-18T09:34:49;21.70;97.60
10644;DHT22;5370;50.132;8.626;2022-10-18T09:37:18;21.80;97.10
10644;DHT22;5370;50.132;8.626;2022-10-18T09:39:47;21.80;96.50
10644;DHT22;5370;50.132;8.626;2022-10-18T09:42:18;21.80;96.10
10644;DHT22;5370;50.132;8.626;2022-10-18T09:44:54;21.70;95.60
10644;DHT22;5370;50.132;8.626;2022-10-18T09:47:33;21.70;95.40
10644;DHT22;5370;50.132;8.626;2022-10-18T09:50:07;21.70;95.40
10644;DHT22;5370;50.132;8.626;2022-10-18T09:52:54;21.70;95.40
10644;DHT22;5370;50.132;8.626;2022-10-18T09:57:55;21.70;95.10
10644;DHT22;5370;50.132;8.626;2022-10-18T10:00:30;21.80;94.90
10644;DHT22;5370;50.132;8.626;2022-10-18T10:02:57;21.90;94.70
10644;DHT22;5370;50.132;8.626;2022-10-18T10:05:23;21.90;94.50
10644;DHT22;5370;50.132;8.626;2022-10-18T10:07:48;21.90;94.50
10644;DHT22;5370;50.132;8.626;2022-10-18T10:10:23;22.00;94.40
10644;DHT22;5370;50.132;8.626;2022-10-18T10:13:04;22.00;94.20
10644;DHT22;5370;50.132;8.626;2022-10-18T10:15:31;22.10;94.00
10644;DHT22;5370;50.132;8.626;2022-10-18T10:22:51;21.90;93.20
10644;DHT22;5370;50.132;8.626;2022-10-18T10:25:25;21.90;93.30
10644;DHT22;5370;50.132;8.626;2022-10-18T10:27:52;21.80;93.40
10644;DHT22;5370;50.132;8.626;2022-10-18T10:30:30;21.70;93.50
10644;DHT22;5370;50.132;8.626;2022-10-18T10:32:57;21.70;93.70
10644;DHT22;5370;50.132;8.626;2022-10-18T10:35:35;21.70;93.70
10644;DHT22;5370;50.132;8.626;2022-10-18T10:38:02;21.70;93.60
10644;DHT22;5370;50.132;8.626;2022-10-18T10:40:29;21.80;93.60
10644;DHT22;5370;50.132;8.626;2022-10-18T10:43:13;21.90;93.20
10644;DHT22;5370;50.132;8.626;2022-10-18T10:45:58;21.90;92.90
10644;DHT22;5370;50.132;8.626;2022-10-18T10:48:25;22.10;92.80
10644;DHT22;5370;50.132;8.626;2022-10-18T10:50:52;22.10;92.50
10644;DHT22;5370;50.132;8.626;2022-10-18T10:53:32;22.20;92.50
10644;DHT22;5370;50.132;8.626;2022-10-18T10:55:59;22.30;92.20
10644;DHT22;5370;50.132;8.626;2022-10-18T10:58:26;22.40;91.90
10644;DHT22;5370;50.132;8.626;2022-10-18T11:00:55;22.40;91.50
10644;DHT22;5370;50.132;8.626;2022-10-18T11:03:21;22.50;91.20
10644;DHT22;5370;50.132;8.626;2022-10-18T11:05:52;22.60;91.00
10644;DHT22;5370;50.132;8.626;2022-10-18T11:08:22;22.60;90.80
10644;DHT22;5370;50.132;8.626;2022-10-18T11:11:01;22.70;90.50
10644;DHT22;5370;50.132;8.626;2022-10-18T11:13:45;22.60;90.10
10644;DHT22;5370;50.132;8.626;2022-10-18T11:17:01;22.60;90.00
10644;DHT22;5370;50.132;8.626;2022-10-18T11:20:08;22.50;90.00
10644;DHT22;5370;50.132;8.626;2022-10-18T11:22:52;22.50;90.10
10644;DHT22;5370;50.132;8.626;2022-10-18T11:25:24;22.30;90.00
10644;DHT22;5370;50.132;8.626;2022-10-18T11:31:11;22.20;90.70
10644;DHT22;5370;50.132;8.626;2022-10-18T11:36:35;22.30;90.80
10644;DHT22;5370;50.132;8.626;2022-10-18T11:39:49;22.40;90.70
10644;DHT22;5370;50.132;8.626;2022-10-18T11:48:00;22.70;90.90
10644;DHT22;5370;50.132;8.626;2022-10-18T11:50:43;22.80;90.30
10644;DHT22;5370;50.132;8.626;2022-10-18T11:59:23;22.60;89.70
10644;DHT22;5370;50.132;8.626;2022-10-18T12:04:30;22.60;89.30
10644;DHT22;5370;50.132;8.626;2022-10-18T12:06:58;22.70;89.10
10644;DHT22;5370;50.132;8.626;2022-10-18T12:09:36;22.70;88.60
10644;DHT22;5370;50.132;8.626;2022-10-18T12:12:34;22.80;88.20
10644;DHT22;5370;50.132;8.626;2022-10-18T12:15:06;22.70;87.80
10644;DHT22;5370;50.132;8.626;2022-10-18T12:17:55;22.50;87.20
10644;DHT22;5370;50.132;8.626;2022-10-18T12:20:28;22.30;87.50
10644;DHT22;5370;50.132;8.626;2022-10-18T12:23:03;22.20;87.90
10644;DHT22;5370;50.132;8.626;2022-10-18T12:25:33;22.10;88.80
10644;DHT22;5370;50.132;8.626;2022-10-18T12:31:24;21.90;89.30
10644;DHT22;5370;50.132;8.626;2022-10-18T12:33:54;21.80;90.10
10644;DHT22;5370;50.132;8.626;2022-10-18T12:38:56;21.60;90.00
10644;DHT22;5370;50.132;8.626;2022-10-18T12:41:31;21.50;89.90
10644;DHT22;5370;50.132;8.626;2022-10-18T12:47:03;21.60;90.30
10644;DHT22;5370;50.132;8.626;2022-10-18T12:49:34;21.70;90.60
10644;DHT22;5370;50.132;8.626;2022-10-18T12:52:19;21.70;90.90
10644;DHT22;5370;50.132;8.626;2022-10-18T13:19:09;21.20;90.50
10644;DHT22;5370;50.132;8.626;2022-10-18T13:24:36;21.30;91.20
10644;DHT22;5370;50.132;8.626;2022-10-18T13:27:21;21.30;91.40
10644;DHT22;5370;50.132;8.626;2022-10-18T13:30:08;21.40;91.50
10644;DHT22;5370;50.132;8.626;2022-10-18T13:36:04;21.60;91.10
10644;DHT22;5370;50.132;8.626;2022-10-18T13:41:20;21.70;90.90
10644;DHT22;5370;50.132;8.626;2022-10-18T13:47:07;21.60;90.80
10644;DHT22;5370;50.132;8.626;2022-10-18T14:00:23;21.60;91.10
10644;DHT22;5370;50.132;8.626;2022-10-18T14:06:11;21.80;90.10
10644;DHT22;5370;50.132;8.626;2022-10-18T14:11:52;21.80;90.00
10644;DHT22;5370;50.132;8.626;2022-10-18T14:14:58;21.90;89.20
10644;DHT22;5370;50.132;8.626;2022-10-18T14:17:46;21.90;88.70
10644;DHT22;5370;50.132;8.626;2022-10-18T14:20:29;22.00;88.80
10644;DHT22;5370;50.132;8.626;2022-10-18T14:23:18;22.00;88.00
10644;DHT22;5370;50.132;8.626;2022-10-18T14:25:45;22.00;87.40
10644;DHT22;5370;50.132;8.626;2022-10-18T14:28:16;21.90;84.80
10644;DHT22;5370;50.132;8.626;2022-10-18T14:30:59;21.90;84.80
10644;DHT22;5370;50.132;8.626;2022-10-18T14:35:59;21.90;84.10
10644;DHT22;5370;50.132;8.626;2022-10-18T14:38:26;21.80;83.90
10644;DHT22;5370;50.132;8.626;2022-10-18T14:41:46;21.70;83.80
10644;DHT22;5370;50.132;8.626;2022-10-18T14:44:10;21.60;84.20
10644;DHT22;5370;50.132;8.626;2022-10-18T14:46:41;21.50;84.90
10644;DHT22;5370;50.132;8.626;2022-10-18T14:49:10;21.50;85.80
10644;DHT22;5370;50.132;8.626;2022-10-18T14:51:38;21.50;86.40
10644;DHT22;5370;50.132;8.626;2022-10-18T14:54:06;21.50;86.80
10644;DHT22;5370;50.132;8.626;2022-10-18T14:56:37;21.60;87.30
10644;DHT22;5370;50.132;8.626;2022-10-18T14:59:14;21.70;87.80
10644;DHT22;5370;50.132;8.626;2022-10-18T15:01:50;21.80;88.10
10644;DHT22;5370;50.132;8.626;2022-10-18T15:04:16;21.90;88.20
10644;DHT22;5370;50.132;8.626;2022-10-18T15:06:43;22.00;87.40
10644;DHT22;5370;50.132;8.626;2022-10-18T15:09:10;22.20;87.00
10644;DHT22;5370;50.132;8.626;2022-10-18T15:11:36;22.30;85.90
10644;DHT22;5370;50.132;8.626;2022-10-18T15:14:08;22.40;85.00
10644;DHT22;5370;50.132;8.626;2022-10-18T15:16:37;22.50;84.20
10644;DHT22;5370;50.132;8.626;2022-10-18T15:21:29;22.60;83.20
10644;DHT22;5370;50.132;8.626;2022-10-18T15:24:19;22.60;82.20
10644;DHT22;5370;50.132;8.626;2022-10-18T15:26:45;22.40;81.40
10644;DHT22;5370;50.132;8.626;2022-10-18T15:29:18;22.30;81.40
10644;DHT22;5370;50.132;8.626;2022-10-18T15:31:45;22.20;81.80
10644;DHT22;5370;50.132;8.626;2022-10-18T15:34:23;22.00;81.70
10644;DHT22;5370;50.132;8.626;2022-10-18T15:36:51;21.90;81.70
10644;DHT22;5370;50.132;8.626;2022-10-18T15:41:58;21.60;82.70
10644;DHT22;5370;50.132;8.626;2022-10-18T15:44:46;21.50;82.80
10644;DHT22;5370;50.132;8.626;2022-10-18T15:47:16;21.30;83.20
10644;DHT22;5370;50.132;8.626;2022-10-18T15:52:31;21.00;84.00
10644;DHT22;5370;50.132;8.626;2022-10-18T15:54:57;20.90;84.80
10644;DHT22;5370;50.132;8.626;2022-10-18T15:57:23;20.80;85.70
10644;DHT22;5370;50.132;8.626;2022-10-18T15:59:52;20.80;86.70
10644;DHT22;5370;50.132;8.626;2022-10-18T16:02:18;20.70;87.80
10644;DHT22;5370;50.132;8.626;2022-10-18T16:04:44;20.60;88.90
10644;DHT22;5370;50.132;8.626;2022-10-18T16:07:11;20.50;89.70
10644;DHT22;5370;50.132;8.626;2022-10-18T16:09:37;20.40;90.00
10644;DHT22;5370;50.132;8.626;2022-10-18T16:12:03;20.30;90.20
10644;DHT22;5370;50.132;8.626;2022-10-18T16:14:29;20.20;90.50
10644;DHT22;5370;50.132;8.626;2022-10-18T16:17:00;20.10;90.70
10644;DHT22;5370;50.132;8.626;2022-10-18T16:19:26;20.00;90.90
10644;DHT22;5370;50.132;8.626;2022-10-18T16:21:52;19.90;91.10
10644;DHT22;5370;50.132;8.626;2022-10-18T16:24:19;19.80;91.40
10644;DHT22;5370;50.132;8.626;2022-10-18T16:26:45;19.60;91.70
10644;DHT22;5370;50.132;8.626;2022-10-18T16:29:16;19.50;92.10
10644;DHT22;5370;50.132;8.626;2022-10-18T16:31:43;19.40;92.50
10644;DHT22;5370;50.132;8.626;2022-10-18T16:34:11;19.20;92.70
10644;DHT22;5370;50.132;8.626;2022-10-18T16:36:39;19.10;93.10
10644;DHT22;5370;50.132;8.626;2022-10-18T16:39:06;19.00;93.50
10644;DHT22;5370;50.132;8.626;2022-10-18T16:41:36;18.80;93.90
10644;DHT22;5370;50.132;8.626;2022-10-18T16:44:02;18.70;94.30
10644;DHT22;5370;50.132;8.626;2022-10-18T16:46:32;18.60;94.90
10644;DHT22;5370;50.132;8.626;2022-10-18T16:48:59;18.50;95.40
10644;DHT22;5370;50.132;8.626;2022-10-18T16:51:25;18.30;95.80
10644;DHT22;5370;50.132;8.626;2022-10-18T16:53:51;18.20;96.40
10644;DHT22;5370;50.132;8.626;2022-10-18T16:56:23;18.10;96.90
10644;DHT22;5370;50.132;8.626;2022-10-18T16:58:49;18.00;97.60
10644;DHT22;5370;50.132;8.626;2022-10-18T17:01:18;17.90;98.10
10644;DHT22;5370;50.132;8.626;2022-10-18T17:03:45;17.80;98.80
10644;DHT22;5370;50.132;8.626;2022-10-18T17:06:20;17.70;99.30
10644;DHT22;5370;50.132;8.626;2022-10-18T17:08:45;17.60;99.90
10644;DHT22;5370;50.132;8.626;2022-10-18T17:11:13;17.50;99.90
10644;DHT22;5370;50.132;8.626;2022-10-18T17:13:39;17.50;99.90
10644;DHT22;5370;50.132;8.626;2022-10-18T17:16:05;17.40;99.90
10644;DHT22;5370;50.132;8.626;2022-10-18T17:18:31;17.30;99.90
10644;DHT22;5370;50.132;8.626;2022-10-18T17:20:57;17.30;99.90
10644;DHT22;5370;50.132;8.626;2022-10-18T17:23:26;17.20;99.90
10644;DHT22;5370;50.132;8.626;2022-10-18T17:25:51;17.20;99.90
10644;DHT22;5370;50.132;8.626;2022-10-18T17:28:19;17.10;99.90
10644;DHT22;5370;50.132;8.626;2022-10-18T17:30:45;17.10;99.90
10644;DHT22;5370;50.132;8.626;2022-10-18T17:33:11;17.00;99.90
10644;DHT22;5370;50.132;8.626;2022-10-18T17:35:37;17.00;99.90
10644;DHT22;5370;50.132;8.626;2022-10-18T17:38:04;16.90;99.90
10644;DHT22;5370;50.132;8.626;2022-10-18T17:40:30;16.90;99.90
10644;DHT22;5370;50.132;8.626;2022-10-18T17:42:56;16.80;99.90
10644;DHT22;5370;50.132;8.626;2022-10-18T17:45:22;16.80;99.90
10644;DHT22;5370;50.132;8.626;2022-10-18T17:47:48;16.70;99.90
10644;DHT22;5370;50.132;8.626;2022-10-18T17:50:14;16.70;99.90
10644;DHT22;5370;50.132;8.626;2022-10-18T17:52:45;16.70;99.90
10644;DHT22;5370;50.132;8.626;2022-10-18T17:55:11;16.70;99.90
10644;DHT22;5370;50.132;8.626;2022-10-18T17:57:38;16.60;99.90
10644;DHT22;5370;50.132;8.626;2022-10-18T18:00:05;16.60;99.90
10644;DHT22;5370;50.132;8.626;2022-10-18T18:02:32;16.60;99.90
10644;DHT22;5370;50.132;8.626;2022-10-18T18:04:58;16.60;99.90
10644;DHT22;5370;50.132;8.626;2022-10-18T18:07:23;16.60;99.90
10644;DHT22;5370;50.132;8.626;2022-10-18T18:09:49;16.60;99.90
10644;DHT22;5370;50.132;8.626;2022-10-18T18:12:14;16.60;99.90
10644;DHT22;5370;50.132;8.626;2022-10-18T18:14:40;16.70;99.90
10644;DHT22;5370;50.132;8.626;2022-10-18T18:17:06;16.60;99.90
10644;DHT22;5370;50.132;8.626;2022-10-18T18:19:31;16.60;99.90
10644;DHT22;5370;50.132;8.626;2022-10-18T18:21:57;16.70;99.90
10644;DHT22;5370;50.132;8.626;2022-10-18T18:24:24;16.70;99.90
10644;DHT22;5370;50.132;8.626;2022-10-18T18:26:51;16.70;99.90